Auke Bay, Alaska
Current Conditions -  °F | °C
As of 3:53 AM on Friday 31 Oct 2014 (Local Time) from PAJN Reporting Station
Light Rain Light Rain  
Wind Chill: 34°   Ceiling: 3500
Heat Index: 42°   Visibility: 10mi
Dew Point: 39°   Wind: 17mph
Humidity: 89%   Direction: 120°ESE
Pressure: 29.49"   Gusts: NA
Location:  58.38°N, 134.67°W
Report Text: PAJN 311153Z 12015KT 10SM -RA FEW017 BKN035 OVC060 06/04 A2949 RMK AO2 RAB1054 SLP987 P0000 60002 70035 T00560039 10056 20044 58007
Loading
Personal Weather Stations






























Interactive Weather Map
Tropical Storm Tracking
New forecast layout! Learn more

10-Day Weather Forecast

Advertisements
Track Severe Weather on mobile